createdAt,value
2022-12-19T00:00:00.957Z,2.10
2022-12-19T00:01:16.017Z,2.10
2022-12-19T00:02:18.074Z,2.20
2022-12-19T00:03:19.904Z,2.30
2022-12-19T00:04:21.730Z,2.20
2022-12-19T00:05:23.503Z,2.30
2022-12-19T00:06:27.564Z,2.10
2022-12-19T00:07:30.687Z,2.00
2022-12-19T00:08:32.719Z,2.10
2022-12-19T00:09:34.551Z,2.10
2022-12-19T00:10:43.156Z,2.00
2022-12-19T00:11:44.870Z,2.30
2022-12-19T00:12:46.663Z,2.20
2022-12-19T00:13:48.867Z,2.00
2022-12-19T00:14:50.597Z,2.10
2022-12-19T00:15:52.302Z,2.30
2022-12-19T00:16:53.948Z,2.00
2022-12-19T00:17:55.626Z,2.20
2022-12-19T00:18:59.592Z,2.20
2022-12-19T00:20:01.202Z,1.70
2022-12-19T00:21:05.300Z,2.30
2022-12-19T00:22:11.043Z,2.20
2022-12-19T00:23:13.019Z,2.10
2022-12-19T00:24:20.777Z,2.20
2022-12-19T00:25:24.737Z,2.10
2022-12-19T00:26:33.883Z,2.00
2022-12-19T00:27:36.476Z,2.10
2022-12-19T00:28:39.476Z,2.30
2022-12-19T00:29:43.282Z,2.40
2022-12-19T00:30:45.898Z,2.40
2022-12-19T00:31:47.606Z,2.40
2022-12-19T00:32:49.639Z,2.40
2022-12-19T00:33:51.867Z,2.40
2022-12-19T00:34:54.240Z,2.40
2022-12-19T00:36:00.765Z,2.40
2022-12-19T00:37:02.726Z,2.40
2022-12-19T00:38:04.507Z,2.50
2022-12-19T00:39:08.484Z,2.60
2022-12-19T00:40:11.006Z,2.30
2022-12-19T00:41:15.572Z,2.50
2022-12-19T00:42:17.275Z,2.40
2022-12-19T00:43:19.010Z,2.00
2022-12-19T00:44:23.096Z,2.50
2022-12-19T00:45:24.779Z,2.60
2022-12-19T00:46:27.544Z,2.50
2022-12-19T00:47:29.144Z,2.60
2022-12-19T00:48:32.101Z,2.50
2022-12-19T00:49:33.749Z,2.50
2022-12-19T00:50:35.517Z,2.50
2022-12-19T00:51:37.628Z,2.50
2022-12-19T00:52:39.470Z,2.40
2022-12-19T00:53:41.728Z,2.50
2022-12-19T00:54:43.473Z,2.30
2022-12-19T00:55:45.188Z,2.50
2022-12-19T00:56:46.790Z,2.70
2022-12-19T00:57:48.434Z,2.60
2022-12-19T00:58:50.736Z,2.60
2022-12-19T00:59:52.431Z,2.70
2022-12-19T01:00:54.055Z,2.40
2022-12-19T01:01:55.779Z,2.40
2022-12-19T01:02:59.375Z,2.40
2022-12-19T01:05:25.123Z,2.50
2022-12-19T01:06:27.615Z,2.60
2022-12-19T01:07:29.710Z,2.50
2022-12-19T01:08:31.427Z,2.50
2022-12-19T01:09:35.048Z,2.40
2022-12-19T01:10:38.819Z,2.40
2022-12-19T01:11:59.729Z,2.30
2022-12-19T01:13:01.381Z,2.40
2022-12-19T01:14:04.949Z,2.50
2022-12-19T01:15:07.177Z,2.40
2022-12-19T01:16:13.409Z,2.50
2022-12-19T01:17:15.558Z,2.00
2022-12-19T01:18:19.610Z,2.30
2022-12-19T01:19:21.245Z,2.30
2022-12-19T01:20:29.093Z,2.30
2022-12-19T01:21:31.508Z,2.30
2022-12-19T01:22:33.293Z,2.20
2022-12-19T01:23:36.501Z,2.50
2022-12-19T01:24:38.142Z,2.50
2022-12-19T01:25:40.198Z,2.50
2022-12-19T01:26:45.049Z,2.40
2022-12-19T01:27:46.783Z,2.30
2022-12-19T01:28:48.393Z,2.30
2022-12-19T01:29:52.854Z,2.30
2022-12-19T01:30:57.598Z,2.20
2022-12-19T01:31:59.417Z,2.50
2022-12-19T01:33:02.701Z,2.30
2022-12-19T01:34:06.969Z,2.40
2022-12-19T01:35:09.941Z,2.40
2022-12-19T01:36:22.377Z,2.40
2022-12-19T01:37:24.126Z,2.10
2022-12-19T01:38:26.127Z,2.10
2022-12-19T01:39:27.982Z,2.10
2022-12-19T01:40:32.832Z,2.00
2022-12-19T01:41:34.783Z,2.30
2022-12-19T01:42:37.328Z,2.10
2022-12-19T01:44:00.569Z,2.30
2022-12-19T01:45:19.178Z,2.20
2022-12-19T01:46:39.718Z,2.30
2022-12-19T01:47:55.661Z,2.20
2022-12-19T01:48:57.422Z,2.50
2022-12-19T01:50:00.539Z,2.40
2022-12-19T01:51:07.360Z,2.30
2022-12-19T01:52:12.885Z,2.40
2022-12-19T01:53:29.015Z,2.40
2022-12-19T01:54:37.053Z,2.50
2022-12-19T01:55:40.774Z,2.30
2022-12-19T01:56:47.484Z,2.30
2022-12-19T01:57:49.387Z,2.30
2022-12-19T01:58:58.916Z,2.50
2022-12-19T02:00:11.297Z,2.30
2022-12-19T02:01:14.773Z,2.40
2022-12-19T02:02:24.675Z,2.30
2022-12-19T02:03:32.894Z,2.30
2022-12-19T02:04:34.944Z,2.40
2022-12-19T02:05:37.541Z,2.50
2022-12-19T02:06:42.510Z,2.10
2022-12-19T02:07:45.106Z,2.40
2022-12-19T02:08:48.898Z,2.30
2022-12-19T02:09:57.249Z,2.40
2022-12-19T02:10:59.236Z,2.40
2022-12-19T02:12:01.593Z,2.30
2022-12-19T02:13:03.459Z,2.40
2022-12-19T02:14:05.158Z,2.30
2022-12-19T02:15:08.126Z,2.40
2022-12-19T02:16:34.516Z,2.60
2022-12-19T02:18:01.215Z,2.50
2022-12-19T02:19:42.123Z,2.60
2022-12-19T02:21:04.803Z,2.40
2022-12-19T02:22:18.972Z,2.60
2022-12-19T02:23:59.355Z,2.50
2022-12-19T02:25:23.878Z,2.50
2022-12-19T02:26:34.363Z,2.50
2022-12-19T02:28:12.129Z,2.50
2022-12-19T02:29:25.180Z,2.70
2022-12-19T02:31:12.512Z,2.70
2022-12-19T02:32:42.660Z,2.50
2022-12-19T02:34:13.933Z,2.50
2022-12-19T02:35:45.210Z,2.40
2022-12-19T02:36:54.627Z,2.60
2022-12-19T02:38:13.226Z,2.30
2022-12-19T02:39:51.159Z,2.50
2022-12-19T02:41:13.195Z,2.20
2022-12-19T02:42:22.502Z,2.20
2022-12-19T02:43:30.274Z,2.10
2022-12-19T02:44:37.609Z,2.10
2022-12-19T02:45:40.941Z,2.10
2022-12-19T02:46:46.024Z,2.30
2022-12-19T02:47:48.473Z,2.30
2022-12-19T02:48:51.320Z,2.40
2022-12-19T02:49:54.217Z,2.10
2022-12-19T02:50:56.064Z,2.30
2022-12-19T02:51:58.059Z,2.40
2022-12-19T02:52:59.996Z,2.30
2022-12-19T02:54:01.733Z,2.40
2022-12-19T02:55:11.339Z,2.20
2022-12-19T02:56:37.068Z,2.40
2022-12-19T02:58:03.161Z,2.30
2022-12-19T02:59:41.927Z,2.30
2022-12-19T03:00:56.936Z,2.40
2022-12-19T03:02:41.451Z,2.30
2022-12-19T03:04:03.901Z,2.20
2022-12-19T03:05:30.031Z,2.50
2022-12-19T03:06:55.337Z,2.50
2022-12-19T03:08:24.898Z,2.60
2022-12-19T03:09:32.382Z,2.50
2022-12-19T03:10:51.832Z,2.60
2022-12-19T03:12:03.087Z,2.20
2022-12-19T03:13:16.445Z,2.80
2022-12-19T03:14:20.684Z,2.50
2022-12-19T03:15:23.847Z,2.70
2022-12-19T03:16:25.833Z,2.60
2022-12-19T03:17:30.005Z,2.60
2022-12-19T03:18:34.905Z,2.60
2022-12-19T03:19:39.317Z,2.60
2022-12-19T03:20:57.723Z,2.60
2022-12-19T03:22:01.615Z,2.50
2022-12-19T03:23:03.286Z,2.80
2022-12-19T03:24:11.827Z,2.90
2022-12-19T03:25:13.649Z,2.80
2022-12-19T03:26:19.904Z,2.70
2022-12-19T03:27:27.781Z,2.70
2022-12-19T03:29:25.438Z,2.80
2022-12-19T03:30:28.527Z,3.00
2022-12-19T03:31:33.190Z,3.00
2022-12-19T03:32:40.043Z,2.90
2022-12-19T03:33:43.670Z,2.80
2022-12-19T03:35:07.081Z,2.70
2022-12-19T03:36:16.292Z,2.80
2022-12-19T03:37:22.466Z,2.70
2022-12-19T03:38:25.332Z,2.90
2022-12-19T03:39:28.879Z,2.70
2022-12-19T03:40:33.017Z,2.70
2022-12-19T03:41:54.810Z,2.70
2022-12-19T03:43:09.076Z,2.50
2022-12-19T03:44:15.890Z,2.70
2022-12-19T03:45:26.090Z,2.90
2022-12-19T03:46:28.324Z,2.80
2022-12-19T03:47:41.117Z,2.80
2022-12-19T03:48:46.850Z,2.70
2022-12-19T03:49:51.538Z,2.70
2022-12-19T03:51:17.538Z,2.80
2022-12-19T03:52:44.230Z,2.90
2022-12-19T03:54:26.938Z,2.80
2022-12-19T03:55:45.724Z,2.90
2022-12-19T03:56:58.119Z,2.90
2022-12-19T03:58:14.710Z,3.00
2022-12-19T03:59:26.537Z,2.80
2022-12-19T04:00:31.291Z,3.00
2022-12-19T04:01:35.130Z,2.80
2022-12-19T04:02:39.324Z,2.80
2022-12-19T04:03:41.264Z,2.80
2022-12-19T04:04:46.654Z,2.80
2022-12-19T04:05:51.422Z,2.80
2022-12-19T04:06:56.305Z,2.60
2022-12-19T04:08:06.920Z,2.80
2022-12-19T04:09:09.980Z,2.90
2022-12-19T04:10:16.621Z,2.90
2022-12-19T04:11:20.962Z,2.80
2022-12-19T04:12:28.223Z,2.90
2022-12-19T04:13:57.747Z,2.80
2022-12-19T04:14:59.836Z,2.90
2022-12-19T04:16:11.872Z,2.80
2022-12-19T04:17:48.468Z,3.10
2022-12-19T04:18:56.473Z,2.90
2022-12-19T04:20:24.616Z,3.10
2022-12-19T04:21:35.282Z,3.00
2022-12-19T04:23:01.620Z,3.10
2022-12-19T04:24:10.640Z,2.90
2022-12-19T04:25:16.204Z,2.80
2022-12-19T04:26:21.089Z,2.80
2022-12-19T04:27:23.454Z,2.70
2022-12-19T04:28:30.684Z,3.00
2022-12-19T04:29:35.469Z,2.80
2022-12-19T04:30:39.941Z,2.40
2022-12-19T04:31:42.448Z,2.70
2022-12-19T04:32:45.333Z,2.80
2022-12-19T04:33:47.163Z,2.80
2022-12-19T04:34:49.389Z,3.00
2022-12-19T04:35:51.327Z,2.90
2022-12-19T04:36:53.260Z,3.10
2022-12-19T04:37:55.048Z,2.80
2022-12-19T04:38:57.628Z,3.10
2022-12-19T04:40:00.846Z,2.80
2022-12-19T04:41:03.292Z,2.80
2022-12-19T04:42:05.069Z,2.80
2022-12-19T04:43:08.278Z,2.80
2022-12-19T04:44:10.030Z,2.90
2022-12-19T04:45:12.063Z,2.70
2022-12-19T04:46:14.046Z,3.10
2022-12-19T04:47:15.801Z,2.90
2022-12-19T04:48:18.863Z,3.00
2022-12-19T04:49:21.242Z,2.90
2022-12-19T04:50:23.072Z,2.90
2022-12-19T04:51:24.912Z,2.90
2022-12-19T04:52:29.442Z,3.10
2022-12-19T04:53:32.735Z,2.90
2022-12-19T04:54:36.033Z,2.90
2022-12-19T04:55:37.795Z,3.00
2022-12-19T04:56:39.777Z,3.10
2022-12-19T04:57:41.586Z,3.10
2022-12-19T04:58:43.271Z,2.90
2022-12-19T04:59:45.034Z,3.10
2022-12-19T05:00:46.888Z,3.20
2022-12-19T05:01:48.564Z,3.10
2022-12-19T05:02:50.488Z,3.20
2022-12-19T05:03:56.634Z,3.10
2022-12-19T05:04:59.395Z,3.20
2022-12-19T05:06:12.576Z,3.20
2022-12-19T05:07:15.999Z,3.20
2022-12-19T05:08:18.049Z,3.20
2022-12-19T05:09:19.966Z,3.30
2022-12-19T05:10:21.990Z,3.40
2022-12-19T05:11:23.719Z,3.30
2022-12-19T05:12:25.633Z,3.30
2022-12-19T05:13:28.528Z,3.40
2022-12-19T05:14:32.255Z,3.40
2022-12-19T05:15:33.897Z,3.40
2022-12-19T05:16:40.040Z,3.50
2022-12-19T05:17:41.677Z,3.50
2022-12-19T05:18:44.261Z,3.50
2022-12-19T05:19:46.171Z,3.60
2022-12-19T05:20:49.471Z,3.60
2022-12-19T05:21:51.311Z,3.60
2022-12-19T05:22:52.978Z,3.60
2022-12-19T05:23:55.568Z,3.60
2022-12-19T05:24:57.212Z,3.70
2022-12-19T05:26:02.723Z,3.70
2022-12-19T05:27:04.423Z,3.70
2022-12-19T05:28:06.095Z,3.70
2022-12-19T05:29:08.543Z,3.70
2022-12-19T05:30:10.718Z,3.70
2022-12-19T05:31:16.438Z,3.70
2022-12-19T05:32:18.142Z,3.80
2022-12-19T05:33:19.855Z,3.80
2022-12-19T05:34:21.541Z,3.80
2022-12-19T05:35:23.640Z,3.80
2022-12-19T05:36:32.190Z,3.80
2022-12-19T05:37:35.756Z,3.80
2022-12-19T05:38:37.880Z,3.80
2022-12-19T05:39:39.584Z,3.80
2022-12-19T05:40:42.267Z,3.80
2022-12-19T05:41:47.557Z,4.00
2022-12-19T05:42:52.941Z,3.80
2022-12-19T05:43:56.623Z,3.80
2022-12-19T05:44:58.482Z,3.80
2022-12-19T05:46:00.390Z,3.80
2022-12-19T05:47:02.216Z,3.80
2022-12-19T05:48:04.092Z,3.80
2022-12-19T05:49:05.749Z,3.80
2022-12-19T05:50:08.065Z,3.80
2022-12-19T05:51:09.908Z,3.80
2022-12-19T05:52:11.851Z,3.80
2022-12-19T05:53:13.917Z,3.80
2022-12-19T05:54:16.130Z,3.80
2022-12-19T05:55:17.879Z,3.80
2022-12-19T05:56:22.383Z,3.80
2022-12-19T05:57:24.161Z,3.80
2022-12-19T05:58:25.827Z,3.80
2022-12-19T05:59:28.506Z,3.80
2022-12-19T06:00:31.688Z,3.80
2022-12-19T06:01:33.468Z,3.80
2022-12-19T06:02:43.772Z,3.80
2022-12-19T06:05:05.133Z,3.80
2022-12-19T06:06:12.992Z,3.80
2022-12-19T06:07:19.302Z,3.80
2022-12-19T06:08:22.884Z,3.80
2022-12-19T06:09:27.944Z,3.80
2022-12-19T06:10:29.633Z,3.70
2022-12-19T06:11:31.244Z,3.70
2022-12-19T06:12:33.283Z,3.70
2022-12-19T06:13:35.401Z,3.70
2022-12-19T06:14:37.124Z,3.70
2022-12-19T06:15:40.055Z,3.60
2022-12-19T06:16:42.421Z,3.60
2022-12-19T06:17:45.683Z,3.60
2022-12-19T06:18:48.608Z,3.60
2022-12-19T06:19:54.816Z,3.60
2022-12-19T06:21:05.105Z,3.60
2022-12-19T06:22:06.842Z,3.70
2022-12-19T06:23:12.570Z,3.70
2022-12-19T06:24:17.704Z,3.70
2022-12-19T06:25:20.013Z,3.70
2022-12-19T06:26:23.172Z,3.70
2022-12-19T06:27:25.473Z,3.70
2022-12-19T06:28:30.063Z,3.80
2022-12-19T06:29:33.724Z,3.70
2022-12-19T06:30:36.909Z,3.80
2022-12-19T06:31:40.508Z,3.80
2022-12-19T06:32:42.338Z,3.80
2022-12-19T06:33:44.080Z,3.80
2022-12-19T06:35:03.787Z,3.80
2022-12-19T06:36:11.938Z,3.80
2022-12-19T06:37:24.293Z,3.80
2022-12-19T06:38:29.877Z,3.80
2022-12-19T06:39:33.842Z,3.80
2022-12-19T06:40:55.099Z,3.90
2022-12-19T06:42:16.805Z,3.90
2022-12-19T06:43:18.942Z,3.90
2022-12-19T06:44:25.384Z,4.00
2022-12-19T06:45:27.308Z,3.90
2022-12-19T06:46:33.032Z,4.00
2022-12-19T06:47:36.345Z,4.00
2022-12-19T06:48:40.351Z,4.00
2022-12-19T06:49:43.837Z,4.00
2022-12-19T06:50:46.593Z,4.00
2022-12-19T06:51:48.798Z,4.00
2022-12-19T06:52:52.728Z,4.00
2022-12-19T06:54:03.066Z,4.00
2022-12-19T06:55:13.783Z,4.10
2022-12-19T06:56:17.452Z,4.10
2022-12-19T06:57:28.096Z,4.10
2022-12-19T06:58:30.830Z,4.10
2022-12-19T06:59:35.333Z,4.20
2022-12-19T07:00:38.770Z,4.10
2022-12-19T07:02:09.299Z,4.20
2022-12-19T07:03:17.495Z,4.20
2022-12-19T07:04:38.178Z,4.20
2022-12-19T07:05:41.235Z,4.10
2022-12-19T07:06:49.097Z,4.10
2022-12-19T07:07:53.566Z,4.10
2022-12-19T07:08:56.613Z,4.10
2022-12-19T07:09:58.766Z,4.10
2022-12-19T07:11:02.824Z,4.10
2022-12-19T07:12:16.588Z,4.10
2022-12-19T07:13:20.392Z,4.00
2022-12-19T07:14:24.330Z,4.10
2022-12-19T07:15:27.000Z,4.10
2022-12-19T07:16:30.054Z,4.10
2022-12-19T07:17:34.270Z,4.10
2022-12-19T07:18:39.786Z,4.10
2022-12-19T07:19:42.908Z,4.10
2022-12-19T07:20:45.943Z,4.10
2022-12-19T07:21:49.106Z,4.10
2022-12-19T07:22:52.813Z,4.10
2022-12-19T07:24:03.590Z,4.10
2022-12-19T07:26:27.215Z,4.10
2022-12-19T07:27:35.646Z,4.10
2022-12-19T07:28:38.801Z,4.10
2022-12-19T07:31:57.502Z,4.20
2022-12-19T07:33:01.816Z,4.20
2022-12-19T07:34:05.625Z,4.20
2022-12-19T07:35:16.087Z,4.20
2022-12-19T07:36:20.245Z,4.10
2022-12-19T07:37:23.442Z,4.20
2022-12-19T07:38:25.774Z,4.20
2022-12-19T07:39:27.521Z,4.20
2022-12-19T07:40:29.339Z,4.50
2022-12-19T07:42:55.232Z,4.30
2022-12-19T07:44:04.829Z,4.30
2022-12-19T07:46:24.059Z,4.40
2022-12-19T07:47:27.618Z,4.40
2022-12-19T07:48:32.510Z,4.40
2022-12-19T07:49:35.366Z,4.30
2022-12-19T07:50:42.618Z,4.40
2022-12-19T07:51:48.263Z,4.50
2022-12-19T07:52:51.823Z,4.50
2022-12-19T07:53:55.634Z,4.50
2022-12-19T07:56:17.743Z,4.50
2022-12-19T07:57:22.405Z,4.60
2022-12-19T07:58:25.956Z,4.60
2022-12-19T07:59:32.293Z,4.60
2022-12-19T08:01:55.846Z,4.60
2022-12-19T08:03:02.285Z,4.60
2022-12-19T08:04:04.179Z,4.60
2022-12-19T08:05:06.799Z,4.70
2022-12-19T08:06:11.755Z,4.70
2022-12-19T08:07:15.634Z,4.70
2022-12-19T08:08:22.488Z,4.70
2022-12-19T08:09:28.430Z,4.70
2022-12-19T08:10:30.956Z,4.70
2022-12-19T08:11:32.927Z,4.60
2022-12-19T08:12:34.656Z,4.70
2022-12-19T08:13:43.138Z,4.70
2022-12-19T08:14:49.880Z,4.80
2022-12-19T08:15:54.476Z,4.80
2022-12-19T08:18:20.229Z,4.80
2022-12-19T08:19:27.166Z,4.80
2022-12-19T08:20:29.960Z,4.80
2022-12-19T08:21:33.087Z,4.80
2022-12-19T08:22:35.253Z,4.80
2022-12-19T08:23:41.342Z,4.80
2022-12-19T08:24:43.042Z,4.90
2022-12-19T08:25:45.210Z,4.90
2022-12-19T08:26:47.817Z,4.90
2022-12-19T08:27:49.719Z,4.90
2022-12-19T08:29:20.389Z,4.90
2022-12-19T08:30:22.078Z,4.90
2022-12-19T08:31:26.764Z,4.90
2022-12-19T08:32:29.524Z,5.00
2022-12-19T08:33:31.261Z,5.00
2022-12-19T08:34:33.039Z,5.00
2022-12-19T08:35:37.465Z,5.00
2022-12-19T08:36:40.180Z,5.00
2022-12-19T08:37:42.045Z,5.00
2022-12-19T08:38:46.887Z,5.00
2022-12-19T08:39:48.589Z,5.00
2022-12-19T08:40:56.603Z,5.00
2022-12-19T08:41:58.263Z,5.10
2022-12-19T08:43:02.421Z,5.10
2022-12-19T08:44:04.325Z,5.10
2022-12-19T08:45:07.787Z,5.20
2022-12-19T08:46:10.025Z,5.20
2022-12-19T08:47:11.921Z,5.20
2022-12-19T08:48:14.919Z,5.30
2022-12-19T08:49:16.851Z,5.30
2022-12-19T08:50:18.574Z,5.30
2022-12-19T08:51:21.834Z,5.40
2022-12-19T08:52:24.655Z,5.40
2022-12-19T08:53:28.481Z,5.40
2022-12-19T08:54:31.236Z,5.40
2022-12-19T08:55:35.272Z,5.50
2022-12-19T08:56:36.922Z,5.50
2022-12-19T08:57:43.586Z,5.50
2022-12-19T08:58:48.926Z,5.40
2022-12-19T08:59:53.697Z,5.40
2022-12-19T09:01:05.598Z,5.40
2022-12-19T09:02:09.613Z,5.40
2022-12-19T09:03:12.910Z,5.40
2022-12-19T09:05:04.747Z,5.40
2022-12-19T09:06:04.008Z,5.40
2022-12-19T09:06:59.732Z,5.30
2022-12-19T09:08:01.643Z,5.40
2022-12-19T09:09:06.283Z,5.40
2022-12-19T09:10:08.706Z,5.40
2022-12-19T09:11:16.145Z,5.40
2022-12-19T09:12:19.140Z,5.40
2022-12-19T09:13:20.933Z,5.50
2022-12-19T09:14:22.540Z,5.50
2022-12-19T09:15:24.376Z,5.50
2022-12-19T09:16:28.987Z,5.50
2022-12-19T09:17:31.076Z,5.50
2022-12-19T09:18:33.797Z,5.50
2022-12-19T09:19:35.602Z,5.50
2022-12-19T09:20:37.518Z,5.60
2022-12-19T09:21:39.835Z,5.50
2022-12-19T09:22:41.969Z,5.50
2022-12-19T09:23:48.784Z,5.50
2022-12-19T09:24:54.315Z,5.50
2022-12-19T09:25:58.042Z,5.40
2022-12-19T09:26:59.818Z,5.40
2022-12-19T09:28:26.922Z,5.40
2022-12-19T09:29:34.901Z,5.40
2022-12-19T09:30:37.161Z,5.40
2022-12-19T09:31:39.275Z,5.40
2022-12-19T09:32:41.187Z,5.40
2022-12-19T09:33:43.987Z,5.40
2022-12-19T09:34:45.957Z,5.40
2022-12-19T09:35:55.401Z,5.40
2022-12-19T09:37:01.271Z,5.50
2022-12-19T09:38:03.894Z,5.50
2022-12-19T09:39:06.018Z,5.50
2022-12-19T09:40:11.291Z,5.50
2022-12-19T09:41:40.246Z,5.50
2022-12-19T09:42:59.786Z,5.50
2022-12-19T09:44:18.949Z,5.60
2022-12-19T09:45:32.531Z,5.60
2022-12-19T09:46:51.766Z,5.60
2022-12-19T09:47:59.491Z,5.60
2022-12-19T09:49:01.740Z,5.70
2022-12-19T09:50:10.997Z,5.70
2022-12-19T09:51:38.293Z,5.70
2022-12-19T09:52:50.106Z,5.70
2022-12-19T09:54:19.895Z,5.70
2022-12-19T09:55:35.014Z,5.70
2022-12-19T09:56:46.140Z,5.70
2022-12-19T09:57:51.080Z,5.70
2022-12-19T09:59:01.887Z,5.80
2022-12-19T10:00:15.674Z,5.80
2022-12-19T10:01:25.262Z,5.90
2022-12-19T10:02:54.597Z,5.90
2022-12-19T10:04:10.622Z,6.00
2022-12-19T10:07:05.940Z,6.00
2022-12-19T10:07:18.228Z,6.00
2022-12-19T10:08:37.991Z,6.00
2022-12-19T10:12:12.259Z,6.00
2022-12-19T10:12:37.615Z,6.10
2022-12-19T10:13:07.781Z,6.10
2022-12-19T10:14:48.271Z,6.10
2022-12-19T10:16:03.849Z,6.10
2022-12-19T10:17:30.117Z,6.00
2022-12-19T10:18:57.843Z,6.00
2022-12-19T10:20:19.649Z,6.00
2022-12-19T10:22:17.015Z,6.00
2022-12-19T10:23:34.042Z,6.00
2022-12-19T10:25:08.480Z,6.00
2022-12-19T10:26:17.557Z,6.00
2022-12-19T10:27:57.767Z,6.00
2022-12-19T10:29:39.755Z,6.00
2022-12-19T10:31:32.994Z,6.00
2022-12-19T10:32:58.144Z,6.00
2022-12-19T10:34:41.480Z,6.00
2022-12-19T10:35:45.840Z,6.10
2022-12-19T10:38:34.293Z,6.10
2022-12-19T10:39:47.607Z,6.10
2022-12-19T10:41:07.100Z,6.20
2022-12-19T10:42:37.861Z,6.20
2022-12-19T10:44:10.507Z,6.20
2022-12-19T10:45:19.295Z,6.30
2022-12-19T10:46:40.498Z,6.30
2022-12-19T10:47:42.603Z,6.30
2022-12-19T10:48:44.251Z,6.30
2022-12-19T10:49:45.879Z,6.30
2022-12-19T10:50:48.639Z,6.30
2022-12-19T10:52:09.837Z,6.30
2022-12-19T10:53:13.478Z,6.40
2022-12-19T10:54:16.081Z,6.30
2022-12-19T10:55:34.855Z,6.40
2022-12-19T10:56:37.947Z,6.40
2022-12-19T10:57:41.387Z,6.40
2022-12-19T10:58:45.977Z,6.50
2022-12-19T11:00:15.690Z,6.50
2022-12-19T11:01:39.016Z,6.50
2022-12-19T11:02:48.858Z,6.60
2022-12-19T11:04:14.200Z,6.60
2022-12-19T11:05:42.036Z,6.60
2022-12-19T11:06:48.312Z,6.70
2022-12-19T11:08:03.234Z,6.70
2022-12-19T11:09:37.132Z,6.70
2022-12-19T11:12:35.605Z,6.70
2022-12-19T11:15:25.589Z,6.70
2022-12-19T11:19:13.535Z,6.70
2022-12-19T11:19:30.450Z,6.70
2022-12-19T11:23:32.589Z,6.70
2022-12-19T11:27:27.347Z,6.80
2022-12-19T11:29:19.608Z,6.80
2022-12-19T11:29:33.481Z,6.90
2022-12-19T11:29:34.918Z,6.90
2022-12-19T11:29:42.411Z,6.80
2022-12-19T11:30:36.761Z,6.90
2022-12-19T11:30:43.747Z,6.90
2022-12-19T11:30:45.504Z,6.90
2022-12-19T11:32:49.291Z,6.90
2022-12-19T11:34:02.399Z,7.00
2022-12-19T11:35:24.815Z,7.00
2022-12-19T11:36:39.324Z,7.00
2022-12-19T11:38:15.905Z,7.00
2022-12-19T11:39:32.277Z,7.10
2022-12-19T11:40:50.130Z,7.20
2022-12-19T11:42:03.728Z,7.20
2022-12-19T11:44:53.681Z,7.20
2022-12-19T11:46:03.038Z,7.30
2022-12-19T11:47:39.878Z,7.30
2022-12-19T11:48:51.386Z,7.30
2022-12-19T11:50:18.518Z,7.30
2022-12-19T11:51:40.115Z,7.30
2022-12-19T11:53:18.361Z,7.40
2022-12-19T11:54:53.572Z,7.30
2022-12-19T11:56:01.136Z,7.40
2022-12-19T11:57:02.952Z,7.30
2022-12-19T11:58:04.609Z,7.30
2022-12-19T11:59:24.546Z,7.30
2022-12-19T12:00:26.770Z,7.30
2022-12-19T12:01:45.800Z,7.30
2022-12-19T12:02:53.660Z,7.30
2022-12-19T12:04:08.755Z,7.30
2022-12-19T12:05:38.209Z,7.30
2022-12-19T12:06:54.160Z,7.30
2022-12-19T12:11:45.072Z,7.30
2022-12-19T12:16:08.043Z,7.30
2022-12-19T12:17:48.848Z,7.30
2022-12-19T12:22:11.157Z,7.30
2022-12-19T12:23:26.853Z,7.30
2022-12-19T12:30:54.466Z,7.30
2022-12-19T12:31:07.593Z,7.30
2022-12-19T12:31:12.902Z,7.30
2022-12-19T12:31:18.719Z,7.30
2022-12-19T12:31:28.476Z,7.30
2022-12-19T12:31:52.361Z,7.40
2022-12-19T12:31:52.919Z,7.40
2022-12-19T12:32:02.052Z,7.40
2022-12-19T12:32:04.342Z,7.40
2022-12-19T12:35:22.332Z,7.50
2022-12-19T12:35:48.801Z,7.60
2022-12-19T12:35:51.087Z,7.50
2022-12-19T12:37:51.427Z,7.60
2022-12-19T12:38:23.604Z,7.60
2022-12-19T12:39:55.130Z,7.60
2022-12-19T12:41:10.462Z,7.50
2022-12-19T12:42:33.380Z,7.50
2022-12-19T12:43:44.311Z,7.40
2022-12-19T12:44:48.419Z,7.40
2022-12-19T12:45:50.082Z,7.40
2022-12-19T12:47:29.010Z,7.40
2022-12-19T12:48:45.716Z,7.40
2022-12-19T12:49:56.335Z,7.40
2022-12-19T12:51:00.474Z,7.50
2022-12-19T12:52:05.189Z,7.50
2022-12-19T12:53:10.637Z,7.60
2022-12-19T12:54:15.678Z,7.50
2022-12-19T12:55:20.619Z,7.60
2022-12-19T12:56:22.707Z,7.60
2022-12-19T12:57:27.308Z,7.50
2022-12-19T12:58:50.888Z,7.50
2022-12-19T13:00:16.133Z,7.50
2022-12-19T13:01:29.517Z,7.50
2022-12-19T13:02:34.045Z,7.50
2022-12-19T13:03:40.547Z,7.50
2022-12-19T13:04:59.944Z,7.50
2022-12-19T13:06:20.875Z,7.50
2022-12-19T13:07:43.526Z,7.50
2022-12-19T13:08:50.918Z,7.60
2022-12-19T13:10:08.253Z,7.60
2022-12-19T13:12:03.600Z,7.60
2022-12-19T13:13:16.601Z,7.70
2022-12-19T13:14:40.363Z,7.70
2022-12-19T13:15:45.972Z,7.70
2022-12-19T13:16:53.440Z,7.90
2022-12-19T13:17:58.198Z,7.80
2022-12-19T13:19:29.239Z,7.90
2022-12-19T13:20:47.031Z,7.80
2022-12-19T13:22:04.146Z,7.90
2022-12-19T13:23:43.020Z,7.90
2022-12-19T13:24:56.912Z,7.90
2022-12-19T13:25:58.708Z,7.90
2022-12-19T13:27:01.020Z,7.90
2022-12-19T13:28:02.777Z,8.00
2022-12-19T13:29:53.765Z,7.90
2022-12-19T13:31:18.970Z,7.90
2022-12-19T13:32:23.841Z,8.00
2022-12-19T13:33:46.811Z,7.90
2022-12-19T13:35:02.835Z,8.00
2022-12-19T13:39:56.400Z,8.00
2022-12-19T13:40:00.636Z,7.90
2022-12-19T13:40:33.139Z,8.00
2022-12-19T13:42:00.930Z,8.00
2022-12-19T13:43:24.664Z,7.90
2022-12-19T13:44:26.919Z,8.00
2022-12-19T13:45:32.032Z,7.90
2022-12-19T13:46:42.799Z,8.00
2022-12-19T13:47:45.575Z,8.00
2022-12-19T13:48:51.321Z,8.00
2022-12-19T13:49:53.847Z,8.00
2022-12-19T13:50:57.594Z,8.00
2022-12-19T13:52:00.028Z,8.00
2022-12-19T13:53:14.444Z,8.00
2022-12-19T13:54:23.572Z,8.00
2022-12-19T13:55:29.022Z,8.00
2022-12-19T13:56:31.265Z,8.00
2022-12-19T13:57:32.958Z,8.00
2022-12-19T13:59:01.337Z,8.00
2022-12-19T14:00:10.715Z,8.00
2022-12-19T14:01:28.785Z,8.00
2022-12-19T14:02:43.822Z,8.00
2022-12-19T14:03:48.663Z,8.00
2022-12-19T14:04:50.428Z,8.00
2022-12-19T14:06:16.965Z,8.00
2022-12-19T14:07:35.899Z,8.10
2022-12-19T14:08:39.983Z,7.90
2022-12-19T14:11:30.555Z,7.90
2022-12-19T14:11:43.172Z,7.90
2022-12-19T14:14:00.669Z,7.90
2022-12-19T14:14:38.908Z,7.90
2022-12-19T14:15:51.957Z,7.90
2022-12-19T14:17:06.253Z,7.90
2022-12-19T14:18:43.248Z,7.90
2022-12-19T14:19:52.518Z,7.90
2022-12-19T14:22:06.737Z,7.90
2022-12-19T14:22:44.151Z,7.90
2022-12-19T14:23:45.840Z,8.00
2022-12-19T14:25:52.593Z,8.00
2022-12-19T14:28:25.549Z,8.00
2022-12-19T14:28:26.254Z,8.10
2022-12-19T14:30:27.746Z,8.10
2022-12-19T14:31:15.786Z,8.10
2022-12-19T14:33:47.019Z,8.10
2022-12-19T14:34:11.508Z,8.10
2022-12-19T14:36:06.196Z,8.10
2022-12-19T14:36:52.949Z,8.10
2022-12-19T14:39:20.437Z,8.20
2022-12-19T14:39:36.458Z,8.20
2022-12-19T14:41:08.676Z,8.20
2022-12-19T14:42:48.291Z,8.20
2022-12-19T14:51:25.266Z,8.20
2022-12-19T14:53:08.460Z,8.20
2022-12-19T14:54:04.232Z,8.10
2022-12-19T14:54:06.893Z,8.20
2022-12-19T14:54:10.512Z,8.20
2022-12-19T14:54:33.733Z,8.10
2022-12-19T14:54:44.282Z,8.10
2022-12-19T14:56:16.611Z,8.20
2022-12-19T14:56:53.855Z,8.10
2022-12-19T14:58:50.880Z,8.10
2022-12-19T14:59:05.257Z,8.10
2022-12-19T15:01:07.919Z,8.10
2022-12-19T15:01:53.973Z,8.10
2022-12-19T15:02:59.037Z,8.10
2022-12-19T15:04:52.362Z,8.10
2022-12-19T15:05:30.232Z,8.10
2022-12-19T15:07:09.125Z,8.10
2022-12-19T15:07:58.835Z,8.00
2022-12-19T15:11:04.631Z,8.00
2022-12-19T15:11:09.050Z,8.00
2022-12-19T15:14:51.690Z,8.00
2022-12-19T15:14:51.987Z,7.90
2022-12-19T15:15:24.579Z,7.90
2022-12-19T15:16:34.792Z,7.80
2022-12-19T15:17:48.519Z,7.80
2022-12-19T15:20:23.771Z,7.70
2022-12-19T15:21:30.752Z,7.70
2022-12-19T15:22:32.857Z,7.70
2022-12-19T15:23:35.615Z,7.70
2022-12-19T15:24:37.325Z,7.70
2022-12-19T15:26:06.842Z,7.70
2022-12-19T15:27:01.672Z,7.70
2022-12-19T15:28:12.109Z,7.80
2022-12-19T15:29:21.715Z,7.70
2022-12-19T15:30:24.336Z,7.80
2022-12-19T15:31:38.870Z,7.80
2022-12-19T15:32:40.874Z,7.80
2022-12-19T15:34:06.614Z,7.80
2022-12-19T15:35:13.081Z,7.90
2022-12-19T15:36:14.901Z,7.90
2022-12-19T15:37:18.120Z,7.90
2022-12-19T15:38:20.700Z,7.90
2022-12-19T15:39:24.941Z,7.90
2022-12-19T15:40:26.763Z,8.00
2022-12-19T15:41:28.582Z,8.00
2022-12-19T15:42:32.584Z,8.00
2022-12-19T15:44:02.429Z,8.00
2022-12-19T15:44:58.198Z,8.00
2022-12-19T15:46:01.278Z,8.00
2022-12-19T15:47:07.383Z,8.00
2022-12-19T15:48:16.378Z,8.10
2022-12-19T15:49:20.216Z,8.00
2022-12-19T15:50:25.467Z,8.10
2022-12-19T15:51:27.324Z,8.10
2022-12-19T15:52:30.380Z,8.10
2022-12-19T15:53:40.588Z,8.10
2022-12-19T15:54:51.142Z,8.10
2022-12-19T15:55:55.356Z,8.10
2022-12-19T15:56:57.428Z,8.10
2022-12-19T15:58:03.659Z,8.10
2022-12-19T15:59:16.375Z,8.10
2022-12-19T16:00:23.342Z,8.10
2022-12-19T16:01:30.886Z,8.00
2022-12-19T16:04:00.037Z,8.00
2022-12-19T16:05:04.552Z,8.00